createdAt,value
2017-06-25T00:01:49.672Z,65.00
2017-06-25T00:04:17.968Z,65.20
2017-06-25T00:06:46.257Z,65.30
2017-06-25T00:09:14.574Z,65.30
2017-06-25T00:11:42.877Z,66.20
2017-06-25T00:14:11.198Z,66.50
2017-06-25T00:16:39.495Z,66.10
2017-06-25T00:19:07.816Z,65.80
2017-06-25T00:21:36.106Z,66.30
2017-06-25T00:24:04.388Z,66.60
2017-06-25T00:26:32.696Z,66.70
2017-06-25T00:29:00.985Z,67.00
2017-06-25T00:31:29.296Z,67.20
2017-06-25T00:33:57.586Z,67.40
2017-06-25T00:36:26.616Z,67.70
2017-06-25T00:38:54.903Z,68.00
2017-06-25T00:41:23.223Z,68.20
2017-06-25T00:43:51.508Z,68.40
2017-06-25T00:46:19.799Z,68.90
2017-06-25T00:48:48.109Z,69.50
2017-06-25T00:51:16.440Z,69.40
2017-06-25T00:53:50.365Z,69.40
2017-06-25T00:56:18.653Z,69.60
2017-06-25T00:58:46.979Z,70.50
2017-06-25T01:01:15.268Z,72.20
2017-06-25T01:03:43.585Z,73.80
2017-06-25T01:06:11.900Z,73.70
2017-06-25T01:08:40.180Z,73.20
2017-06-25T01:11:08.488Z,72.60
2017-06-25T01:13:36.779Z,71.90
2017-06-25T01:16:05.091Z,71.40
2017-06-25T01:18:33.384Z,70.90
2017-06-25T01:21:01.668Z,70.80
2017-06-25T01:23:29.977Z,70.60
2017-06-25T01:25:58.260Z,70.40
2017-06-25T01:28:26.569Z,70.10
2017-06-25T01:30:54.859Z,70.10
2017-06-25T01:33:23.160Z,70.00
2017-06-25T01:35:51.448Z,70.10
2017-06-25T01:38:19.760Z,70.00
2017-06-25T01:40:48.124Z,69.70
2017-06-25T01:43:16.434Z,69.70
2017-06-25T01:45:44.769Z,70.30
2017-06-25T01:48:13.065Z,70.10
2017-06-25T01:50:41.378Z,70.20
2017-06-25T01:53:09.686Z,70.30
2017-06-25T01:55:38.009Z,70.30
2017-06-25T01:58:06.292Z,70.30
2017-06-25T02:00:34.600Z,70.30
2017-06-25T02:03:02.888Z,70.40
2017-06-25T02:05:31.172Z,70.30
2017-06-25T02:07:59.481Z,70.10
2017-06-25T02:10:27.769Z,70.90
2017-06-25T02:12:56.085Z,70.20
2017-06-25T02:15:24.367Z,70.20
2017-06-25T02:17:52.692Z,70.20
2017-06-25T02:20:20.976Z,70.20
2017-06-25T02:22:49.265Z,70.00
2017-06-25T02:25:17.568Z,70.00
2017-06-25T02:27:45.865Z,70.00
2017-06-25T02:30:14.180Z,70.00
2017-06-25T02:32:42.476Z,69.80
2017-06-25T02:35:10.780Z,69.50
2017-06-25T02:37:38.309Z,69.50
2017-06-25T02:40:06.624Z,69.40
2017-06-25T02:42:34.908Z,69.40
2017-06-25T02:45:03.197Z,69.30
2017-06-25T02:47:31.508Z,69.40
2017-06-25T02:49:59.797Z,69.70
2017-06-25T02:52:28.110Z,70.40
2017-06-25T02:54:56.396Z,70.70
2017-06-25T02:57:24.705Z,71.20
2017-06-25T02:59:52.996Z,71.30
2017-06-25T03:02:21.313Z,71.90
2017-06-25T03:04:49.600Z,72.30
2017-06-25T03:07:17.893Z,72.50
2017-06-25T03:09:49.137Z,72.70
2017-06-25T03:12:17.421Z,72.90
2017-06-25T03:14:45.734Z,73.10
2017-06-25T03:17:14.032Z,73.60
2017-06-25T03:19:42.372Z,74.10
2017-06-25T03:22:10.664Z,74.40
2017-06-25T03:24:38.965Z,74.40
2017-06-25T03:27:07.268Z,74.50
2017-06-25T03:29:35.553Z,74.70
2017-06-25T03:32:03.864Z,74.90
2017-06-25T03:34:32.148Z,74.80
2017-06-25T03:37:00.460Z,74.60
2017-06-25T03:39:28.753Z,74.60
2017-06-25T03:41:57.036Z,74.50
2017-06-25T03:44:25.344Z,74.40
2017-06-25T03:46:53.633Z,74.30
2017-06-25T03:49:21.932Z,74.10
2017-06-25T03:51:50.218Z,73.80
2017-06-25T03:54:18.529Z,74.50
2017-06-25T03:56:46.824Z,73.30
2017-06-25T03:59:15.129Z,73.00
2017-06-25T04:01:43.444Z,72.90
2017-06-25T04:04:11.753Z,72.50
2017-06-25T04:06:40.065Z,72.40
2017-06-25T04:09:08.347Z,72.00
2017-06-25T04:11:35.900Z,72.00
2017-06-25T04:14:04.190Z,72.20
2017-06-25T04:16:32.482Z,72.40
2017-06-25T04:19:00.795Z,73.00
2017-06-25T04:21:29.084Z,74.00
2017-06-25T04:23:57.395Z,74.70
2017-06-25T04:26:25.680Z,75.10
2017-06-25T04:28:53.987Z,75.30
2017-06-25T04:31:22.284Z,75.30
2017-06-25T04:33:50.568Z,74.50
2017-06-25T04:36:18.880Z,75.40
2017-06-25T04:38:47.169Z,75.30
2017-06-25T04:41:15.491Z,75.80
2017-06-25T04:43:43.844Z,76.60
2017-06-25T04:46:12.299Z,77.30
2017-06-25T04:48:40.600Z,78.30
2017-06-25T04:51:08.929Z,77.60
2017-06-25T04:53:37.221Z,77.80
2017-06-25T04:56:05.509Z,77.80
2017-06-25T04:58:33.819Z,78.20
2017-06-25T05:01:02.104Z,78.40
2017-06-25T05:03:30.424Z,78.30
2017-06-25T05:05:58.714Z,78.40
2017-06-25T05:08:27.024Z,79.30
2017-06-25T05:10:55.309Z,78.80
2017-06-25T05:13:23.625Z,78.70
2017-06-25T05:15:51.908Z,78.60
2017-06-25T05:18:20.193Z,78.60
2017-06-25T05:20:48.501Z,78.40
2017-06-25T05:23:16.792Z,78.30
2017-06-25T05:25:45.125Z,78.60
2017-06-25T05:28:13.416Z,79.00
2017-06-25T05:30:41.741Z,78.30
2017-06-25T05:33:10.029Z,78.40
2017-06-25T05:35:38.345Z,78.40
2017-06-25T05:38:06.633Z,78.30
2017-06-25T05:40:34.920Z,78.30
2017-06-25T05:43:03.232Z,78.20
2017-06-25T05:45:31.632Z,78.10
2017-06-25T05:47:59.950Z,78.40
2017-06-25T05:50:32.156Z,78.60
2017-06-25T05:53:00.460Z,79.00
2017-06-25T05:55:28.750Z,79.30
2017-06-25T05:57:56.292Z,79.30
2017-06-25T06:00:24.576Z,79.90
2017-06-25T06:02:52.862Z,79.50
2017-06-25T06:05:21.168Z,79.40
2017-06-25T06:07:49.456Z,79.30
2017-06-25T06:10:17.760Z,79.00
2017-06-25T06:12:46.058Z,78.70
2017-06-25T06:15:14.373Z,79.20
2017-06-25T06:17:42.692Z,79.40
2017-06-25T06:20:11.021Z,79.60
2017-06-25T06:22:39.323Z,79.30
2017-06-25T06:25:07.604Z,79.10
2017-06-25T06:27:35.924Z,79.50
2017-06-25T06:30:04.212Z,79.60
2017-06-25T06:32:32.511Z,79.90
2017-06-25T06:35:00.804Z,79.80
2017-06-25T06:37:29.117Z,79.80
2017-06-25T06:39:57.401Z,79.40
2017-06-25T06:42:25.720Z,79.30
2017-06-25T06:44:54.008Z,79.00
2017-06-25T06:47:22.292Z,78.60
2017-06-25T06:49:50.601Z,78.50
2017-06-25T06:52:18.888Z,78.90
2017-06-25T06:54:47.193Z,79.00
2017-06-25T06:57:15.602Z,79.10
2017-06-25T06:59:43.184Z,79.10
2017-06-25T07:02:11.481Z,79.00
2017-06-25T07:04:39.805Z,78.60
2017-06-25T07:07:08.100Z,78.40
2017-06-25T07:09:36.388Z,77.80
2017-06-25T07:12:04.700Z,77.60
2017-06-25T07:14:32.979Z,77.80
2017-06-25T07:17:01.287Z,77.40
2017-06-25T07:19:28.820Z,77.40
2017-06-25T07:21:57.167Z,75.60
2017-06-25T07:24:25.451Z,76.00
2017-06-25T07:26:53.781Z,76.10
2017-06-25T07:29:22.072Z,75.80
2017-06-25T07:31:50.361Z,74.60
2017-06-25T07:34:18.664Z,73.70
2017-06-25T07:36:46.944Z,72.90
2017-06-25T07:39:15.280Z,73.30
2017-06-25T07:41:43.572Z,72.90
2017-06-25T07:44:11.949Z,72.40
2017-06-25T07:46:40.257Z,71.90
2017-06-25T07:49:08.565Z,70.90
2017-06-25T07:51:36.860Z,71.60
2017-06-25T07:54:05.141Z,72.50
2017-06-25T07:56:33.449Z,72.70
2017-06-25T07:59:01.741Z,72.40
2017-06-25T08:01:30.056Z,72.60
2017-06-25T08:03:58.340Z,71.90
2017-06-25T08:06:26.697Z,71.70
2017-06-25T08:08:54.980Z,71.90
2017-06-25T08:11:23.293Z,72.60
2017-06-25T08:13:51.577Z,73.70
2017-06-25T08:16:19.868Z,74.90
2017-06-25T08:18:48.172Z,74.80
2017-06-25T08:21:16.470Z,74.60
2017-06-25T08:23:44.780Z,74.90
2017-06-25T08:26:13.095Z,74.90
2017-06-25T08:28:41.414Z,73.80
2017-06-25T08:31:09.695Z,73.50
2017-06-25T08:33:38.011Z,73.00
2017-06-25T08:36:06.296Z,72.20
2017-06-25T08:38:34.641Z,72.10
2017-06-25T08:41:02.949Z,71.20
2017-06-25T08:43:31.240Z,71.40
2017-06-25T08:45:59.553Z,70.80
2017-06-25T08:48:27.836Z,69.50
2017-06-25T08:50:56.143Z,69.60
2017-06-25T08:53:24.469Z,68.90
2017-06-25T08:55:52.797Z,68.10
2017-06-25T08:58:21.085Z,66.20
2017-06-25T09:00:49.373Z,64.60
2017-06-25T09:03:17.691Z,65.20
2017-06-25T09:05:45.988Z,66.50
2017-06-25T09:08:14.309Z,66.10
2017-06-25T09:10:42.596Z,65.30
2017-06-25T09:13:10.908Z,66.10
2017-06-25T09:15:39.203Z,66.20
2017-06-25T09:18:07.524Z,67.00
2017-06-25T09:20:36.571Z,66.30
2017-06-25T09:23:04.857Z,65.70
2017-06-25T09:25:33.165Z,65.20
2017-06-25T09:28:01.465Z,65.60
2017-06-25T09:30:29.777Z,66.60
2017-06-25T09:32:58.065Z,66.60
2017-06-25T09:35:26.396Z,66.60
2017-06-25T09:37:54.684Z,67.00
2017-06-25T09:40:23.034Z,66.70
2017-06-25T09:42:51.317Z,66.90
2017-06-25T09:45:19.600Z,66.10
2017-06-25T09:47:47.912Z,65.90
2017-06-25T09:50:16.213Z,65.30
2017-06-25T09:52:44.524Z,65.50
2017-06-25T09:55:12.825Z,65.50
2017-06-25T09:57:41.128Z,65.30
2017-06-25T10:00:09.417Z,65.60
2017-06-25T10:02:37.737Z,64.00
2017-06-25T10:05:06.017Z,62.90
2017-06-25T10:07:34.313Z,61.70
2017-06-25T10:10:02.624Z,59.80
2017-06-25T10:12:30.912Z,59.70
2017-06-25T10:14:59.228Z,59.50
2017-06-25T10:17:27.516Z,59.70
2017-06-25T10:19:55.825Z,58.80
2017-06-25T10:22:24.113Z,59.50
2017-06-25T10:24:52.424Z,60.00
2017-06-25T10:27:20.716Z,60.10
2017-06-25T10:29:49.005Z,60.00
2017-06-25T10:32:17.315Z,60.00
2017-06-25T10:34:45.609Z,59.60
2017-06-25T10:37:13.936Z,59.10
2017-06-25T10:39:42.232Z,59.20
2017-06-25T10:42:10.536Z,58.50
2017-06-25T10:44:38.829Z,58.30
2017-06-25T10:47:07.140Z,57.90
2017-06-25T10:49:35.424Z,57.70
2017-06-25T10:52:03.708Z,56.50
2017-06-25T10:54:32.027Z,57.20
2017-06-25T10:57:00.320Z,57.30
2017-06-25T10:59:28.629Z,56.30
2017-06-25T11:01:56.923Z,55.60
2017-06-25T11:04:25.237Z,55.60
2017-06-25T11:06:53.520Z,55.90
2017-06-25T11:09:21.069Z,55.30
2017-06-25T11:11:49.360Z,54.30
2017-06-25T11:14:17.644Z,53.10
2017-06-25T11:16:45.956Z,51.50
2017-06-25T11:19:14.260Z,50.90
2017-06-25T11:21:42.577Z,50.40
2017-06-25T11:24:10.869Z,48.00
2017-06-25T11:26:39.717Z,47.30
2017-06-25T11:29:08.004Z,46.80
2017-06-25T11:31:36.316Z,48.20
2017-06-25T11:34:04.601Z,47.80
2017-06-25T11:36:32.888Z,48.90
2017-06-25T11:39:01.200Z,49.80
2017-06-25T11:41:29.513Z,48.90
2017-06-25T11:43:57.825Z,48.90
2017-06-25T11:46:26.109Z,49.50
2017-06-25T11:48:54.416Z,49.50
2017-06-25T11:51:22.704Z,49.50
2017-06-25T11:53:51.015Z,49.40
2017-06-25T11:56:19.298Z,49.70
2017-06-25T11:58:47.585Z,49.80
2017-06-25T12:01:15.900Z,49.60
2017-06-25T12:03:44.201Z,50.00
2017-06-25T12:06:12.517Z,49.80
2017-06-25T12:08:40.808Z,49.70
2017-06-25T12:11:09.113Z,49.60
2017-06-25T12:13:37.400Z,49.40
2017-06-25T12:16:05.728Z,48.20
2017-06-25T12:18:34.009Z,47.60
2017-06-25T12:21:02.293Z,47.50
2017-06-25T12:23:30.596Z,47.80
2017-06-25T12:25:58.880Z,48.50
2017-06-25T12:28:27.212Z,49.40
2017-06-25T12:30:55.501Z,49.90
2017-06-25T12:33:23.804Z,49.80
2017-06-25T12:35:52.093Z,49.00
2017-06-25T12:38:20.404Z,47.80
2017-06-25T12:40:48.688Z,48.20
2017-06-25T12:43:16.979Z,47.00
2017-06-25T12:45:45.295Z,46.20
2017-06-25T12:48:13.592Z,45.10
2017-06-25T12:50:41.921Z,45.40
2017-06-25T12:53:10.218Z,45.20
2017-06-25T12:55:38.532Z,44.90
2017-06-25T12:58:06.830Z,44.30
2017-06-25T13:00:35.148Z,45.00
2017-06-25T13:03:03.438Z,45.10
2017-06-25T13:05:31.734Z,44.70
2017-06-25T13:08:00.044Z,44.00
2017-06-25T13:10:28.344Z,44.30
2017-06-25T13:12:56.778Z,44.20
2017-06-25T13:15:25.090Z,43.40
2017-06-25T13:17:53.400Z,43.60
2017-06-25T13:20:21.699Z,43.10
2017-06-25T13:22:50.024Z,43.60
2017-06-25T13:25:20.084Z,43.20
2017-06-25T13:27:48.376Z,42.40
2017-06-25T13:30:16.683Z,42.70
2017-06-25T13:32:44.980Z,43.40
2017-06-25T13:35:13.318Z,42.30
2017-06-25T13:37:41.635Z,42.10
2017-06-25T13:40:09.944Z,42.20
2017-06-25T13:42:38.229Z,43.20
2017-06-25T13:45:06.553Z,43.50
2017-06-25T13:47:34.840Z,43.60
2017-06-25T13:50:03.125Z,42.80
2017-06-25T13:52:31.432Z,42.60
2017-06-25T13:54:59.735Z,42.60
2017-06-25T13:57:28.049Z,41.70
2017-06-25T13:59:56.342Z,42.20
2017-06-25T14:02:24.653Z,42.70
2017-06-25T14:04:52.940Z,42.80
2017-06-25T14:07:21.256Z,41.60
2017-06-25T14:09:49.541Z,42.30
2017-06-25T14:12:17.828Z,41.50
2017-06-25T14:14:46.141Z,42.00
2017-06-25T14:17:14.440Z,42.00
2017-06-25T14:19:42.764Z,42.70
2017-06-25T14:22:11.056Z,43.80
2017-06-25T14:24:39.371Z,45.10
2017-06-25T14:27:07.668Z,45.80
2017-06-25T14:29:35.992Z,46.40
2017-06-25T14:32:04.284Z,45.70
2017-06-25T14:34:32.572Z,44.90
2017-06-25T14:37:00.885Z,44.50
2017-06-25T14:39:29.173Z,44.30
2017-06-25T14:41:57.490Z,44.70
2017-06-25T14:44:25.776Z,44.90
2017-06-25T14:46:54.085Z,45.10
2017-06-25T14:49:22.368Z,45.50
2017-06-25T14:51:50.692Z,45.00
2017-06-25T14:54:18.976Z,44.70
2017-06-25T14:56:47.395Z,44.80
2017-06-25T14:59:15.700Z,44.40
2017-06-25T15:01:43.235Z,44.40
2017-06-25T15:04:11.582Z,44.90
2017-06-25T15:06:39.876Z,46.00
2017-06-25T15:09:08.192Z,46.80
2017-06-25T15:11:36.482Z,47.00
2017-06-25T15:14:04.792Z,47.60
2017-06-25T15:16:33.081Z,47.10
2017-06-25T15:19:01.371Z,46.90
2017-06-25T15:21:29.702Z,46.70
2017-06-25T15:23:58.001Z,46.30
2017-06-25T15:26:26.313Z,45.40
2017-06-25T15:28:53.840Z,45.40
2017-06-25T15:31:22.152Z,45.30
2017-06-25T15:33:50.449Z,45.90
2017-06-25T15:36:18.760Z,46.10
2017-06-25T15:38:46.280Z,46.10
2017-06-25T15:41:14.585Z,46.50
2017-06-25T15:43:42.904Z,46.40
2017-06-25T15:46:11.200Z,45.80
2017-06-25T15:48:39.521Z,45.20
2017-06-25T15:51:07.880Z,44.20
2017-06-25T15:53:35.420Z,44.10
2017-06-25T15:56:03.716Z,43.60
2017-06-25T15:58:32.032Z,44.40
2017-06-25T16:00:59.553Z,44.40
2017-06-25T16:03:27.846Z,44.50
2017-06-25T16:05:56.156Z,44.50
2017-06-25T16:08:24.448Z,43.80
2017-06-25T16:10:52.756Z,43.50
2017-06-25T16:13:21.044Z,43.90
2017-06-25T16:15:49.356Z,43.80
2017-06-25T16:18:17.644Z,44.00
2017-06-25T16:20:45.973Z,44.30
2017-06-25T16:23:14.281Z,44.60
2017-06-25T16:25:42.568Z,43.40
2017-06-25T16:28:10.885Z,43.90
2017-06-25T16:30:39.178Z,43.40
2017-06-25T16:33:07.489Z,43.00
2017-06-25T16:35:35.773Z,43.00
2017-06-25T16:38:04.081Z,42.50
2017-06-25T16:40:32.369Z,42.30
2017-06-25T16:43:00.696Z,41.80
2017-06-25T16:45:29.080Z,42.20
2017-06-25T16:47:57.364Z,42.10
2017-06-25T16:50:25.673Z,42.00
2017-06-25T16:52:53.961Z,42.60
2017-06-25T16:55:22.273Z,42.80
2017-06-25T16:57:50.560Z,42.50
2017-06-25T17:00:18.876Z,42.90
2017-06-25T17:02:47.167Z,42.70
2017-06-25T17:05:15.454Z,42.70
2017-06-25T17:07:43.781Z,43.20
2017-06-25T17:10:12.090Z,43.30
2017-06-25T17:12:40.401Z,42.50
2017-06-25T17:15:08.692Z,39.90
2017-06-25T17:17:37.000Z,38.10
2017-06-25T17:20:05.289Z,38.30
2017-06-25T17:22:33.575Z,39.60
2017-06-25T17:25:01.875Z,41.40
2017-06-25T17:27:30.180Z,42.50
2017-06-25T17:29:58.492Z,42.90
2017-06-25T17:32:26.780Z,43.00
2017-06-25T17:34:55.097Z,43.90
2017-06-25T17:37:23.392Z,44.20
2017-06-25T17:39:51.680Z,45.00
2017-06-25T17:42:19.988Z,44.90
2017-06-25T17:44:48.285Z,45.40
2017-06-25T17:47:16.608Z,45.80
2017-06-25T17:49:44.925Z,46.10
2017-06-25T17:52:13.254Z,46.70
2017-06-25T17:54:41.576Z,47.30
2017-06-25T17:57:09.863Z,47.10
2017-06-25T17:59:37.410Z,47.10
2017-06-25T18:02:05.697Z,48.10
2017-06-25T18:04:34.004Z,48.20
2017-06-25T18:07:02.296Z,48.60
2017-06-25T18:09:30.625Z,48.60
2017-06-25T18:11:58.913Z,48.60
2017-06-25T18:14:27.205Z,48.90
2017-06-25T18:16:55.513Z,49.10
2017-06-25T18:19:23.808Z,49.40
2017-06-25T18:21:52.113Z,49.60
2017-06-25T18:24:20.401Z,49.80
2017-06-25T18:26:48.720Z,50.20
2017-06-25T18:29:17.008Z,50.30
2017-06-25T18:31:45.305Z,50.60
2017-06-25T18:34:13.632Z,51.40
2017-06-25T18:36:41.929Z,51.20
2017-06-25T18:39:10.236Z,51.60
2017-06-25T18:41:38.524Z,51.80
2017-06-25T18:44:06.841Z,52.30
2017-06-25T18:46:35.121Z,52.50
2017-06-25T18:49:03.409Z,53.10
2017-06-25T18:51:31.720Z,53.50
2017-06-25T18:54:00.014Z,53.40
2017-06-25T18:56:28.329Z,53.70
2017-06-25T18:58:55.853Z,53.70
2017-06-25T19:01:24.169Z,55.00
2017-06-25T19:03:52.456Z,54.60
2017-06-25T19:06:20.768Z,54.80
2017-06-25T19:08:49.060Z,54.70
2017-06-25T19:11:17.348Z,54.80
2017-06-25T19:13:45.667Z,54.70
2017-06-25T19:16:13.958Z,54.70
2017-06-25T19:18:42.288Z,54.90
2017-06-25T19:21:10.582Z,55.10
2017-06-25T19:23:38.897Z,55.30
2017-06-25T19:26:07.176Z,55.60
2017-06-25T19:28:35.492Z,55.30
2017-06-25T19:31:03.782Z,55.50
2017-06-25T19:33:32.068Z,55.50
2017-06-25T19:36:00.384Z,55.40
2017-06-25T19:38:28.677Z,55.50
2017-06-25T19:40:56.997Z,55.30
2017-06-25T19:43:25.281Z,55.60
2017-06-25T19:45:53.592Z,55.70
2017-06-25T19:48:21.882Z,56.00
2017-06-25T19:50:50.209Z,56.10
2017-06-25T19:53:18.501Z,56.30
2017-06-25T19:55:46.796Z,56.50
2017-06-25T19:58:15.157Z,56.60
2017-06-25T20:00:43.462Z,56.80
2017-06-25T20:03:11.789Z,57.10
2017-06-25T20:05:40.076Z,57.20
2017-06-25T20:08:08.393Z,57.20
2017-06-25T20:10:36.683Z,57.20
2017-06-25T20:13:04.992Z,57.40
2017-06-25T20:15:33.280Z,57.40
2017-06-25T20:18:01.617Z,57.60
2017-06-25T20:20:29.929Z,57.80
2017-06-25T20:22:58.224Z,57.90
2017-06-25T20:25:26.617Z,57.90
2017-06-25T20:27:54.932Z,57.80
2017-06-25T20:30:23.239Z,58.00
2017-06-25T20:32:51.529Z,58.10
2017-06-25T20:35:19.861Z,58.10
2017-06-25T20:37:48.145Z,58.20
2017-06-25T20:40:16.436Z,58.10
2017-06-25T20:42:44.764Z,58.30
2017-06-25T20:45:13.064Z,58.50
2017-06-25T20:47:41.378Z,58.60
2017-06-25T20:50:09.664Z,58.80
2017-06-25T20:52:37.977Z,58.90
2017-06-25T20:55:06.265Z,59.00
2017-06-25T20:57:34.554Z,59.10
2017-06-25T21:00:02.860Z,59.30
2017-06-25T21:02:31.152Z,59.50
2017-06-25T21:04:59.464Z,59.60
2017-06-25T21:07:27.753Z,59.80
2017-06-25T21:09:56.061Z,60.20
2017-06-25T21:12:24.344Z,60.50
2017-06-25T21:14:52.660Z,60.80
2017-06-25T21:17:20.952Z,61.20
2017-06-25T21:19:49.289Z,61.40
2017-06-25T21:22:17.600Z,61.30
2017-06-25T21:24:45.893Z,61.60
2017-06-25T21:27:14.236Z,62.50
2017-06-25T21:29:42.520Z,62.00
2017-06-25T21:32:10.833Z,62.30
2017-06-25T21:34:39.125Z,62.90
2017-06-25T21:37:07.437Z,62.90
2017-06-25T21:39:35.724Z,63.20
2017-06-25T21:42:04.448Z,63.60
2017-06-25T21:44:32.756Z,64.30
2017-06-25T21:47:00.437Z,64.70
2017-06-25T21:49:28.895Z,65.20
2017-06-25T21:51:57.256Z,65.40
2017-06-25T21:54:25.612Z,65.40
2017-06-25T21:56:53.901Z,65.90
2017-06-25T21:59:22.188Z,66.30
2017-06-25T22:01:50.501Z,66.80
2017-06-25T22:04:18.787Z,67.20
2017-06-25T22:06:47.097Z,67.80
2017-06-25T22:09:15.393Z,68.30
2017-06-25T22:11:43.713Z,68.60
2017-06-25T22:14:12.009Z,68.90
2017-06-25T22:16:40.327Z,69.30
2017-06-25T22:19:08.612Z,69.30
2017-06-25T22:21:36.900Z,69.30
2017-06-25T22:24:05.209Z,69.90
2017-06-25T22:26:33.492Z,70.00
2017-06-25T22:29:01.797Z,70.30
2017-06-25T22:31:30.096Z,70.50
2017-06-25T22:33:58.404Z,70.60
2017-06-25T22:36:26.703Z,70.80
2017-06-25T22:38:55.012Z,71.10
2017-06-25T22:41:23.301Z,71.30
2017-06-25T22:43:51.592Z,71.50
2017-06-25T22:46:19.896Z,71.60
2017-06-25T22:48:48.180Z,71.80
2017-06-25T22:51:16.496Z,71.90
2017-06-25T22:53:44.813Z,71.80
2017-06-25T22:56:13.144Z,71.60
2017-06-25T22:58:41.445Z,71.90
2017-06-25T23:01:09.729Z,72.00
2017-06-25T23:03:38.037Z,71.90
2017-06-25T23:06:06.328Z,72.00
2017-06-25T23:08:34.636Z,71.70
2017-06-25T23:11:02.925Z,72.10
2017-06-25T23:13:31.244Z,72.60
2017-06-25T23:15:59.537Z,72.80
2017-06-25T23:18:27.851Z,72.80
2017-06-25T23:20:56.131Z,72.50
2017-06-25T23:23:24.420Z,72.40
2017-06-25T23:25:52.729Z,72.20
2017-06-25T23:28:21.020Z,72.00
2017-06-25T23:30:49.329Z,72.00
2017-06-25T23:33:17.612Z,71.80
2017-06-25T23:35:45.920Z,71.40
2017-06-25T23:38:14.217Z,71.30
2017-06-25T23:40:42.553Z,71.40
2017-06-25T23:43:10.844Z,71.20
2017-06-25T23:45:39.132Z,71.10
2017-06-25T23:48:07.441Z,70.50
2017-06-25T23:50:35.724Z,70.20
2017-06-25T23:53:04.028Z,69.90
2017-06-25T23:55:32.308Z,69.80
2017-06-25T23:58:00.621Z,69.50
